sensor_id;sensor_type;location;lat;lon;timestamp;P1;durP1;ratioP1;P2;durP2;ratioP2
62572;SDS011;48626;51.678;5.806;2024-03-25T00:00:54;11.80;;;3.13;;
62572;SDS011;48626;51.678;5.806;2024-03-25T00:03:20;14.00;;;2.97;;
62572;SDS011;48626;51.678;5.806;2024-03-25T00:05:45;15.40;;;3.22;;
62572;SDS011;48626;51.678;5.806;2024-03-25T00:08:11;17.27;;;4.50;;
62572;SDS011;48626;51.678;5.806;2024-03-25T00:10:37;16.42;;;2.97;;
62572;SDS011;48626;51.678;5.806;2024-03-25T00:13:02;13.70;;;3.63;;
62572;SDS011;48626;51.678;5.806;2024-03-25T00:15:29;11.07;;;3.17;;
62572;SDS011;48626;51.678;5.806;2024-03-25T00:17:54;13.23;;;3.20;;
62572;SDS011;48626;51.678;5.806;2024-03-25T00:20:20;13.40;;;3.10;;
62572;SDS011;48626;51.678;5.806;2024-03-25T00:22:46;15.57;;;4.07;;
62572;SDS011;48626;51.678;5.806;2024-03-25T00:25:11;16.77;;;3.63;;
62572;SDS011;48626;51.678;5.806;2024-03-25T00:27:37;13.05;;;3.60;;
62572;SDS011;48626;51.678;5.806;2024-03-25T00:30:02;18.13;;;3.78;;
62572;SDS011;48626;51.678;5.806;2024-03-25T00:32:30;27.73;;;4.75;;
62572;SDS011;48626;51.678;5.806;2024-03-25T00:34:55;13.27;;;2.88;;
62572;SDS011;48626;51.678;5.806;2024-03-25T00:37:21;17.80;;;3.78;;
62572;SDS011;48626;51.678;5.806;2024-03-25T00:39:47;19.80;;;3.33;;
62572;SDS011;48626;51.678;5.806;2024-03-25T00:42:12;17.40;;;3.45;;
62572;SDS011;48626;51.678;5.806;2024-03-25T00:44:38;17.90;;;3.72;;
62572;SDS011;48626;51.678;5.806;2024-03-25T00:47:03;13.95;;;3.58;;
62572;SDS011;48626;51.678;5.806;2024-03-25T00:49:29;20.15;;;3.58;;
62572;SDS011;48626;51.678;5.806;2024-03-25T00:51:55;18.40;;;3.65;;
62572;SDS011;48626;51.678;5.806;2024-03-25T00:54:21;12.18;;;3.05;;
62572;SDS011;48626;51.678;5.806;2024-03-25T00:56:48;16.90;;;3.30;;
62572;SDS011;48626;51.678;5.806;2024-03-25T00:59:14;20.52;;;3.67;;
62572;SDS011;48626;51.678;5.806;2024-03-25T01:01:39;11.00;;;3.65;;
62572;SDS011;48626;51.678;5.806;2024-03-25T01:04:05;13.38;;;3.45;;
62572;SDS011;48626;51.678;5.806;2024-03-25T01:06:31;22.40;;;3.88;;
62572;SDS011;48626;51.678;5.806;2024-03-25T01:08:56;23.15;;;4.30;;
62572;SDS011;48626;51.678;5.806;2024-03-25T01:11:22;21.63;;;3.90;;
62572;SDS011;48626;51.678;5.806;2024-03-25T01:13:48;23.27;;;4.72;;
62572;SDS011;48626;51.678;5.806;2024-03-25T01:16:13;19.10;;;3.42;;
62572;SDS011;48626;51.678;5.806;2024-03-25T01:18:39;11.63;;;4.40;;
62572;SDS011;48626;51.678;5.806;2024-03-25T01:21:05;19.25;;;4.68;;
62572;SDS011;48626;51.678;5.806;2024-03-25T01:23:31;21.85;;;6.05;;
62572;SDS011;48626;51.678;5.806;2024-03-25T01:25:56;24.42;;;6.22;;
62572;SDS011;48626;51.678;5.806;2024-03-25T01:28:22;31.25;;;7.25;;
62572;SDS011;48626;51.678;5.806;2024-03-25T01:30:48;22.75;;;7.18;;
62572;SDS011;48626;51.678;5.806;2024-03-25T01:33:14;26.33;;;7.28;;
62572;SDS011;48626;51.678;5.806;2024-03-25T01:35:40;28.30;;;6.53;;
62572;SDS011;48626;51.678;5.806;2024-03-25T01:38:06;18.80;;;6.13;;
62572;SDS011;48626;51.678;5.806;2024-03-25T01:40:32;32.45;;;7.65;;
62572;SDS011;48626;51.678;5.806;2024-03-25T01:42:59;23.40;;;5.63;;
62572;SDS011;48626;51.678;5.806;2024-03-25T01:45:27;22.52;;;5.30;;
62572;SDS011;48626;51.678;5.806;2024-03-25T01:47:55;26.38;;;5.88;;
62572;SDS011;48626;51.678;5.806;2024-03-25T01:50:22;28.15;;;5.97;;
62572;SDS011;48626;51.678;5.806;2024-03-25T01:52:49;24.02;;;5.95;;
62572;SDS011;48626;51.678;5.806;2024-03-25T01:55:16;26.48;;;6.60;;
62572;SDS011;48626;51.678;5.806;2024-03-25T01:57:45;25.42;;;6.15;;
62572;SDS011;48626;51.678;5.806;2024-03-25T02:00:12;27.30;;;7.00;;
62572;SDS011;48626;51.678;5.806;2024-03-25T02:02:40;28.55;;;8.00;;
62572;SDS011;48626;51.678;5.806;2024-03-25T02:05:10;25.27;;;9.18;;
62572;SDS011;48626;51.678;5.806;2024-03-25T02:07:36;29.25;;;9.07;;
62572;SDS011;48626;51.678;5.806;2024-03-25T02:10:02;34.08;;;9.57;;
62572;SDS011;48626;51.678;5.806;2024-03-25T02:12:29;38.53;;;9.52;;
62572;SDS011;48626;51.678;5.806;2024-03-25T02:14:58;26.70;;;8.20;;
62572;SDS011;48626;51.678;5.806;2024-03-25T02:17:24;32.85;;;8.73;;
62572;SDS011;48626;51.678;5.806;2024-03-25T02:19:50;33.22;;;8.40;;
62572;SDS011;48626;51.678;5.806;2024-03-25T02:22:16;26.55;;;7.72;;
62572;SDS011;48626;51.678;5.806;2024-03-25T02:24:42;31.17;;;7.63;;
62572;SDS011;48626;51.678;5.806;2024-03-25T02:27:10;28.95;;;7.70;;
62572;SDS011;48626;51.678;5.806;2024-03-25T02:29:39;18.67;;;5.75;;
62572;SDS011;48626;51.678;5.806;2024-03-25T02:32:09;31.38;;;6.18;;
62572;SDS011;48626;51.678;5.806;2024-03-25T02:34:51;25.77;;;5.60;;
62572;SDS011;48626;51.678;5.806;2024-03-25T02:37:17;21.00;;;5.20;;
62572;SDS011;48626;51.678;5.806;2024-03-25T02:39:44;19.83;;;4.35;;
62572;SDS011;48626;51.678;5.806;2024-03-25T02:42:10;21.08;;;5.28;;
62572;SDS011;48626;51.678;5.806;2024-03-25T02:44:35;19.42;;;4.05;;
62572;SDS011;48626;51.678;5.806;2024-03-25T02:47:02;24.90;;;4.32;;
62572;SDS011;48626;51.678;5.806;2024-03-25T02:49:29;19.50;;;3.95;;
62572;SDS011;48626;51.678;5.806;2024-03-25T02:51:54;22.77;;;4.55;;
62572;SDS011;48626;51.678;5.806;2024-03-25T02:54:20;23.05;;;4.43;;
62572;SDS011;48626;51.678;5.806;2024-03-25T02:56:46;14.43;;;4.20;;
62572;SDS011;48626;51.678;5.806;2024-03-25T02:59:12;13.35;;;3.38;;
62572;SDS011;48626;51.678;5.806;2024-03-25T03:01:37;12.82;;;3.50;;
62572;SDS011;48626;51.678;5.806;2024-03-25T03:04:03;18.08;;;3.97;;
62572;SDS011;48626;51.678;5.806;2024-03-25T03:06:29;14.10;;;3.88;;
62572;SDS011;48626;51.678;5.806;2024-03-25T03:08:54;14.35;;;3.15;;
62572;SDS011;48626;51.678;5.806;2024-03-25T03:11:20;16.27;;;3.85;;
62572;SDS011;48626;51.678;5.806;2024-03-25T03:13:45;22.80;;;4.00;;
62572;SDS011;48626;51.678;5.806;2024-03-25T03:16:11;11.63;;;3.40;;
62572;SDS011;48626;51.678;5.806;2024-03-25T03:18:37;16.98;;;4.00;;
62572;SDS011;48626;51.678;5.806;2024-03-25T03:21:03;21.63;;;4.15;;
62572;SDS011;48626;51.678;5.806;2024-03-25T03:23:28;25.27;;;4.38;;
62572;SDS011;48626;51.678;5.806;2024-03-25T03:25:54;18.98;;;4.00;;
62572;SDS011;48626;51.678;5.806;2024-03-25T03:28:20;20.70;;;5.18;;
62572;SDS011;48626;51.678;5.806;2024-03-25T03:30:46;18.80;;;3.75;;
62572;SDS011;48626;51.678;5.806;2024-03-25T03:33:11;20.23;;;4.00;;
62572;SDS011;48626;51.678;5.806;2024-03-25T03:35:37;13.27;;;3.60;;
62572;SDS011;48626;51.678;5.806;2024-03-25T03:38:02;16.08;;;3.65;;
62572;SDS011;48626;51.678;5.806;2024-03-25T03:40:28;17.70;;;3.58;;
62572;SDS011;48626;51.678;5.806;2024-03-25T03:42:54;13.57;;;3.63;;
62572;SDS011;48626;51.678;5.806;2024-03-25T03:45:21;17.73;;;3.63;;
62572;SDS011;48626;51.678;5.806;2024-03-25T03:47:49;22.52;;;3.90;;
62572;SDS011;48626;51.678;5.806;2024-03-25T03:50:15;14.10;;;3.22;;
62572;SDS011;48626;51.678;5.806;2024-03-25T03:52:40;19.88;;;3.40;;
62572;SDS011;48626;51.678;5.806;2024-03-25T03:55:06;20.77;;;4.05;;
62572;SDS011;48626;51.678;5.806;2024-03-25T03:57:32;14.73;;;3.33;;
62572;SDS011;48626;51.678;5.806;2024-03-25T03:59:58;19.80;;;4.05;;
62572;SDS011;48626;51.678;5.806;2024-03-25T04:02:24;12.73;;;3.75;;
62572;SDS011;48626;51.678;5.806;2024-03-25T04:04:51;15.18;;;3.45;;
62572;SDS011;48626;51.678;5.806;2024-03-25T04:07:16;12.77;;;3.78;;
62572;SDS011;48626;51.678;5.806;2024-03-25T04:09:42;17.33;;;3.90;;
62572;SDS011;48626;51.678;5.806;2024-03-25T04:12:08;17.42;;;3.47;;
62572;SDS011;48626;51.678;5.806;2024-03-25T04:14:34;17.52;;;3.70;;
62572;SDS011;48626;51.678;5.806;2024-03-25T04:16:59;15.48;;;3.95;;
62572;SDS011;48626;51.678;5.806;2024-03-25T04:19:25;23.17;;;4.40;;
62572;SDS011;48626;51.678;5.806;2024-03-25T04:21:55;15.82;;;3.72;;
62572;SDS011;48626;51.678;5.806;2024-03-25T04:24:21;17.48;;;4.18;;
62572;SDS011;48626;51.678;5.806;2024-03-25T04:26:46;22.00;;;3.85;;
62572;SDS011;48626;51.678;5.806;2024-03-25T04:29:12;20.85;;;4.28;;
62572;SDS011;48626;51.678;5.806;2024-03-25T04:31:40;17.75;;;4.05;;
62572;SDS011;48626;51.678;5.806;2024-03-25T04:34:05;18.58;;;3.45;;
62572;SDS011;48626;51.678;5.806;2024-03-25T04:36:31;19.42;;;4.13;;
62572;SDS011;48626;51.678;5.806;2024-03-25T04:38:56;11.70;;;3.65;;
62572;SDS011;48626;51.678;5.806;2024-03-25T04:41:22;14.98;;;4.18;;
62572;SDS011;48626;51.678;5.806;2024-03-25T04:43:48;19.02;;;4.22;;
62572;SDS011;48626;51.678;5.806;2024-03-25T04:46:14;13.50;;;4.30;;
62572;SDS011;48626;51.678;5.806;2024-03-25T04:48:39;13.40;;;3.85;;
62572;SDS011;48626;51.678;5.806;2024-03-25T04:51:05;11.93;;;3.47;;
62572;SDS011;48626;51.678;5.806;2024-03-25T04:53:31;12.52;;;3.78;;
62572;SDS011;48626;51.678;5.806;2024-03-25T04:55:57;13.80;;;4.30;;
62572;SDS011;48626;51.678;5.806;2024-03-25T04:58:23;26.92;;;4.25;;
62572;SDS011;48626;51.678;5.806;2024-03-25T05:00:48;19.60;;;4.28;;
62572;SDS011;48626;51.678;5.806;2024-03-25T05:03:14;11.25;;;3.75;;
62572;SDS011;48626;51.678;5.806;2024-03-25T05:05:39;19.45;;;5.10;;
62572;SDS011;48626;51.678;5.806;2024-03-25T05:08:06;20.75;;;5.55;;
62572;SDS011;48626;51.678;5.806;2024-03-25T05:10:31;17.48;;;4.07;;
62572;SDS011;48626;51.678;5.806;2024-03-25T05:12:57;13.25;;;4.43;;
62572;SDS011;48626;51.678;5.806;2024-03-25T05:15:22;14.13;;;4.15;;
62572;SDS011;48626;51.678;5.806;2024-03-25T05:17:48;17.90;;;4.40;;
62572;SDS011;48626;51.678;5.806;2024-03-25T05:20:14;18.52;;;4.38;;
62572;SDS011;48626;51.678;5.806;2024-03-25T05:22:39;13.07;;;4.32;;
62572;SDS011;48626;51.678;5.806;2024-03-25T05:25:05;16.30;;;4.13;;
62572;SDS011;48626;51.678;5.806;2024-03-25T05:27:31;13.98;;;3.83;;
62572;SDS011;48626;51.678;5.806;2024-03-25T05:29:56;17.55;;;4.78;;
62572;SDS011;48626;51.678;5.806;2024-03-25T05:32:22;18.58;;;5.25;;
62572;SDS011;48626;51.678;5.806;2024-03-25T05:34:47;22.83;;;5.63;;
62572;SDS011;48626;51.678;5.806;2024-03-25T05:37:13;14.85;;;5.13;;
62572;SDS011;48626;51.678;5.806;2024-03-25T05:39:39;17.60;;;5.07;;
62572;SDS011;48626;51.678;5.806;2024-03-25T05:42:05;26.35;;;5.93;;
62572;SDS011;48626;51.678;5.806;2024-03-25T05:44:31;16.10;;;5.18;;
62572;SDS011;48626;51.678;5.806;2024-03-25T05:46:56;14.82;;;5.40;;
62572;SDS011;48626;51.678;5.806;2024-03-25T05:49:22;22.17;;;6.53;;
62572;SDS011;48626;51.678;5.806;2024-03-25T05:51:48;19.00;;;5.43;;
62572;SDS011;48626;51.678;5.806;2024-03-25T05:54:13;17.55;;;6.03;;
62572;SDS011;48626;51.678;5.806;2024-03-25T05:56:39;11.18;;;4.93;;
62572;SDS011;48626;51.678;5.806;2024-03-25T05:59:05;16.88;;;6.10;;
62572;SDS011;48626;51.678;5.806;2024-03-25T06:01:31;14.52;;;5.88;;
62572;SDS011;48626;51.678;5.806;2024-03-25T06:03:56;14.30;;;5.28;;
62572;SDS011;48626;51.678;5.806;2024-03-25T06:06:22;18.75;;;5.47;;
62572;SDS011;48626;51.678;5.806;2024-03-25T06:08:48;21.15;;;5.78;;
62572;SDS011;48626;51.678;5.806;2024-03-25T06:11:15;16.33;;;5.72;;
62572;SDS011;48626;51.678;5.806;2024-03-25T06:13:45;23.52;;;6.50;;
62572;SDS011;48626;51.678;5.806;2024-03-25T06:16:11;19.23;;;6.53;;
62572;SDS011;48626;51.678;5.806;2024-03-25T06:18:37;20.50;;;6.20;;
62572;SDS011;48626;51.678;5.806;2024-03-25T06:21:03;18.55;;;6.53;;
62572;SDS011;48626;51.678;5.806;2024-03-25T06:23:28;16.55;;;6.57;;
62572;SDS011;48626;51.678;5.806;2024-03-25T06:25:54;21.92;;;6.60;;
62572;SDS011;48626;51.678;5.806;2024-03-25T06:28:21;16.00;;;6.13;;
62572;SDS011;48626;51.678;5.806;2024-03-25T06:30:47;16.15;;;6.70;;
62572;SDS011;48626;51.678;5.806;2024-03-25T06:33:32;21.23;;;6.53;;
62572;SDS011;48626;51.678;5.806;2024-03-25T06:36:17;20.83;;;6.80;;
62572;SDS011;48626;51.678;5.806;2024-03-25T06:38:43;22.23;;;7.65;;
62572;SDS011;48626;51.678;5.806;2024-03-25T06:41:09;19.33;;;7.93;;
62572;SDS011;48626;51.678;5.806;2024-03-25T06:43:35;20.10;;;8.30;;
62572;SDS011;48626;51.678;5.806;2024-03-25T06:46:03;19.70;;;8.32;;
62572;SDS011;48626;51.678;5.806;2024-03-25T06:48:29;17.27;;;8.18;;
62572;SDS011;48626;51.678;5.806;2024-03-25T06:50:55;28.13;;;9.23;;
62572;SDS011;48626;51.678;5.806;2024-03-25T06:53:22;21.70;;;9.07;;
62572;SDS011;48626;51.678;5.806;2024-03-25T06:55:52;18.67;;;8.52;;
62572;SDS011;48626;51.678;5.806;2024-03-25T06:58:22;27.63;;;9.35;;
62572;SDS011;48626;51.678;5.806;2024-03-25T07:00:49;32.28;;;8.73;;
62572;SDS011;48626;51.678;5.806;2024-03-25T07:03:19;21.63;;;8.98;;
62572;SDS011;48626;51.678;5.806;2024-03-25T07:05:45;23.90;;;9.07;;
62572;SDS011;48626;51.678;5.806;2024-03-25T07:08:12;29.90;;;9.35;;
62572;SDS011;48626;51.678;5.806;2024-03-25T07:10:38;21.92;;;9.23;;
62572;SDS011;48626;51.678;5.806;2024-03-25T07:13:06;20.13;;;8.95;;
62572;SDS011;48626;51.678;5.806;2024-03-25T07:15:31;26.20;;;9.45;;
62572;SDS011;48626;51.678;5.806;2024-03-25T07:17:57;23.55;;;9.00;;
62572;SDS011;48626;51.678;5.806;2024-03-25T07:20:23;32.75;;;9.65;;
62572;SDS011;48626;51.678;5.806;2024-03-25T07:22:49;29.20;;;10.32;;
62572;SDS011;48626;51.678;5.806;2024-03-25T07:25:14;25.83;;;10.70;;
62572;SDS011;48626;51.678;5.806;2024-03-25T07:27:40;25.80;;;10.35;;
62572;SDS011;48626;51.678;5.806;2024-03-25T07:30:06;18.73;;;9.63;;
62572;SDS011;48626;51.678;5.806;2024-03-25T07:32:33;28.33;;;10.85;;
62572;SDS011;48626;51.678;5.806;2024-03-25T07:34:59;26.02;;;10.68;;
62572;SDS011;48626;51.678;5.806;2024-03-25T07:37:25;26.40;;;10.68;;
62572;SDS011;48626;51.678;5.806;2024-03-25T07:39:50;22.48;;;10.23;;
62572;SDS011;48626;51.678;5.806;2024-03-25T07:42:16;26.45;;;11.02;;
62572;SDS011;48626;51.678;5.806;2024-03-25T07:44:42;28.48;;;11.98;;
62572;SDS011;48626;51.678;5.806;2024-03-25T07:47:07;29.83;;;10.77;;
62572;SDS011;48626;51.678;5.806;2024-03-25T07:49:33;24.25;;;11.07;;
62572;SDS011;48626;51.678;5.806;2024-03-25T07:51:59;30.88;;;10.98;;
62572;SDS011;48626;51.678;5.806;2024-03-25T07:54:28;24.30;;;10.63;;
62572;SDS011;48626;51.678;5.806;2024-03-25T07:56:54;29.15;;;10.48;;
62572;SDS011;48626;51.678;5.806;2024-03-25T07:59:19;31.13;;;11.05;;
62572;SDS011;48626;51.678;5.806;2024-03-25T08:01:45;30.50;;;10.48;;
62572;SDS011;48626;51.678;5.806;2024-03-25T08:04:10;23.23;;;9.98;;
62572;SDS011;48626;51.678;5.806;2024-03-25T08:06:36;31.70;;;10.07;;
62572;SDS011;48626;51.678;5.806;2024-03-25T08:09:02;28.00;;;10.73;;
62572;SDS011;48626;51.678;5.806;2024-03-25T08:11:34;23.67;;;10.20;;
62572;SDS011;48626;51.678;5.806;2024-03-25T08:13:59;24.80;;;10.27;;
62572;SDS011;48626;51.678;5.806;2024-03-25T08:16:25;19.48;;;8.35;;
62572;SDS011;48626;51.678;5.806;2024-03-25T08:18:51;27.63;;;8.43;;
62572;SDS011;48626;51.678;5.806;2024-03-25T08:21:16;31.33;;;9.27;;
62572;SDS011;48626;51.678;5.806;2024-03-25T08:23:45;28.70;;;8.70;;
62572;SDS011;48626;51.678;5.806;2024-03-25T08:26:11;21.05;;;9.32;;
62572;SDS011;48626;51.678;5.806;2024-03-25T08:28:37;32.47;;;9.48;;
62572;SDS011;48626;51.678;5.806;2024-03-25T08:31:03;28.70;;;9.48;;
62572;SDS011;48626;51.678;5.806;2024-03-25T08:33:29;28.05;;;8.98;;
62572;SDS011;48626;51.678;5.806;2024-03-25T08:35:55;23.85;;;8.70;;
62572;SDS011;48626;51.678;5.806;2024-03-25T08:38:20;29.08;;;9.02;;
62572;SDS011;48626;51.678;5.806;2024-03-25T08:40:46;26.38;;;8.80;;
62572;SDS011;48626;51.678;5.806;2024-03-25T08:43:12;21.77;;;7.63;;
62572;SDS011;48626;51.678;5.806;2024-03-25T08:45:37;23.35;;;7.90;;
62572;SDS011;48626;51.678;5.806;2024-03-25T08:48:03;22.98;;;9.18;;
62572;SDS011;48626;51.678;5.806;2024-03-25T08:50:29;29.42;;;8.15;;
62572;SDS011;48626;51.678;5.806;2024-03-25T08:52:55;26.60;;;7.80;;
62572;SDS011;48626;51.678;5.806;2024-03-25T08:55:20;23.58;;;6.97;;
62572;SDS011;48626;51.678;5.806;2024-03-25T08:57:46;19.05;;;7.50;;
62572;SDS011;48626;51.678;5.806;2024-03-25T09:00:11;20.33;;;7.10;;
62572;SDS011;48626;51.678;5.806;2024-03-25T09:02:37;18.80;;;7.03;;
62572;SDS011;48626;51.678;5.806;2024-03-25T09:05:03;23.77;;;6.97;;
62572;SDS011;48626;51.678;5.806;2024-03-25T09:07:35;22.50;;;7.35;;
62572;SDS011;48626;51.678;5.806;2024-03-25T09:10:01;17.55;;;7.47;;
62572;SDS011;48626;51.678;5.806;2024-03-25T09:12:46;22.00;;;6.03;;
62572;SDS011;48626;51.678;5.806;2024-03-25T09:15:11;26.30;;;7.10;;
62572;SDS011;48626;51.678;5.806;2024-03-25T09:17:37;24.80;;;7.85;;
62572;SDS011;48626;51.678;5.806;2024-03-25T09:20:04;24.80;;;8.05;;
62572;SDS011;48626;51.678;5.806;2024-03-25T09:22:41;22.05;;;7.28;;
62572;SDS011;48626;51.678;5.806;2024-03-25T09:25:07;14.73;;;6.03;;
62572;SDS011;48626;51.678;5.806;2024-03-25T09:27:33;26.77;;;7.75;;
62572;SDS011;48626;51.678;5.806;2024-03-25T09:29:59;21.08;;;6.93;;
62572;SDS011;48626;51.678;5.806;2024-03-25T09:32:24;18.45;;;6.03;;
62572;SDS011;48626;51.678;5.806;2024-03-25T09:34:51;19.45;;;7.30;;
62572;SDS011;48626;51.678;5.806;2024-03-25T09:37:17;24.35;;;7.22;;
62572;SDS011;48626;51.678;5.806;2024-03-25T09:39:43;14.57;;;6.53;;
62572;SDS011;48626;51.678;5.806;2024-03-25T09:42:08;24.65;;;7.85;;
62572;SDS011;48626;51.678;5.806;2024-03-25T09:44:39;21.13;;;6.47;;
62572;SDS011;48626;51.678;5.806;2024-03-25T09:47:05;20.63;;;6.65;;
62572;SDS011;48626;51.678;5.806;2024-03-25T09:49:32;19.10;;;6.57;;
62572;SDS011;48626;51.678;5.806;2024-03-25T09:51:58;17.48;;;6.55;;
62572;SDS011;48626;51.678;5.806;2024-03-25T09:54:24;19.85;;;7.15;;
62572;SDS011;48626;51.678;5.806;2024-03-25T09:56:50;18.63;;;6.65;;
62572;SDS011;48626;51.678;5.806;2024-03-25T09:59:16;23.60;;;7.18;;
62572;SDS011;48626;51.678;5.806;2024-03-25T10:01:43;23.17;;;7.57;;
62572;SDS011;48626;51.678;5.806;2024-03-25T10:04:09;24.98;;;7.32;;
62572;SDS011;48626;51.678;5.806;2024-03-25T10:06:35;12.35;;;6.78;;
62572;SDS011;48626;51.678;5.806;2024-03-25T10:09:04;19.65;;;7.68;;
62572;SDS011;48626;51.678;5.806;2024-03-25T10:11:31;21.80;;;8.63;;
62572;SDS011;48626;51.678;5.806;2024-03-25T10:14:00;15.02;;;7.07;;
62572;SDS011;48626;51.678;5.806;2024-03-25T10:16:26;18.35;;;7.03;;
62572;SDS011;48626;51.678;5.806;2024-03-25T10:18:52;17.75;;;6.88;;
62572;SDS011;48626;51.678;5.806;2024-03-25T10:21:21;22.67;;;6.82;;
62572;SDS011;48626;51.678;5.806;2024-03-25T10:23:48;16.42;;;6.28;;
62572;SDS011;48626;51.678;5.806;2024-03-25T10:26:26;16.20;;;5.90;;
62572;SDS011;48626;51.678;5.806;2024-03-25T10:29:03;10.82;;;5.43;;
62572;SDS011;48626;51.678;5.806;2024-03-25T10:31:31;16.40;;;5.63;;
62572;SDS011;48626;51.678;5.806;2024-03-25T10:33:57;11.20;;;5.65;;
62572;SDS011;48626;51.678;5.806;2024-03-25T10:36:23;13.30;;;4.90;;
62572;SDS011;48626;51.678;5.806;2024-03-25T10:38:52;12.35;;;5.18;;
62572;SDS011;48626;51.678;5.806;2024-03-25T10:41:20;11.52;;;5.22;;
62572;SDS011;48626;51.678;5.806;2024-03-25T10:43:47;15.40;;;4.90;;
62572;SDS011;48626;51.678;5.806;2024-03-25T10:46:20;12.18;;;5.10;;
62572;SDS011;48626;51.678;5.806;2024-03-25T10:51:24;10.90;;;4.32;;
62572;SDS011;48626;51.678;5.806;2024-03-25T10:53:51;21.48;;;5.03;;
62572;SDS011;48626;51.678;5.806;2024-03-25T10:56:20;13.68;;;4.75;;
62572;SDS011;48626;51.678;5.806;2024-03-25T10:58:49;11.48;;;5.18;;
62572;SDS011;48626;51.678;5.806;2024-03-25T11:01:18;9.55;;;4.18;;
62572;SDS011;48626;51.678;5.806;2024-03-25T11:03:44;10.75;;;4.30;;
62572;SDS011;48626;51.678;5.806;2024-03-25T11:06:13;12.32;;;4.10;;
62572;SDS011;48626;51.678;5.806;2024-03-25T11:08:39;9.30;;;4.65;;
62572;SDS011;48626;51.678;5.806;2024-03-25T11:11:06;10.00;;;4.40;;
62572;SDS011;48626;51.678;5.806;2024-03-25T11:13:32;10.20;;;4.28;;
62572;SDS011;48626;51.678;5.806;2024-03-25T11:15:59;9.50;;;4.88;;
62572;SDS011;48626;51.678;5.806;2024-03-25T11:18:26;14.02;;;5.07;;
62572;SDS011;48626;51.678;5.806;2024-03-25T11:21:02;11.38;;;5.30;;
62572;SDS011;48626;51.678;5.806;2024-03-25T11:23:42;11.90;;;5.35;;
62572;SDS011;48626;51.678;5.806;2024-03-25T11:26:18;14.02;;;5.35;;
62572;SDS011;48626;51.678;5.806;2024-03-25T11:28:45;12.45;;;5.85;;
62572;SDS011;48626;51.678;5.806;2024-03-25T11:31:11;11.23;;;5.10;;
62572;SDS011;48626;51.678;5.806;2024-03-25T11:33:40;9.70;;;4.97;;
62572;SDS011;48626;51.678;5.806;2024-03-25T11:36:06;14.75;;;5.22;;
62572;SDS011;48626;51.678;5.806;2024-03-25T11:38:32;10.50;;;4.93;;
62572;SDS011;48626;51.678;5.806;2024-03-25T11:40:59;12.18;;;5.13;;
62572;SDS011;48626;51.678;5.806;2024-03-25T11:43:25;12.65;;;5.95;;
62572;SDS011;48626;51.678;5.806;2024-03-25T11:45:51;12.00;;;5.20;;
62572;SDS011;48626;51.678;5.806;2024-03-25T11:48:19;12.95;;;5.85;;
62572;SDS011;48626;51.678;5.806;2024-03-25T11:50:45;13.75;;;5.80;;
62572;SDS011;48626;51.678;5.806;2024-03-25T11:53:12;11.27;;;5.05;;
62572;SDS011;48626;51.678;5.806;2024-03-25T11:55:40;13.05;;;5.22;;
62572;SDS011;48626;51.678;5.806;2024-03-25T11:58:06;10.15;;;5.35;;
62572;SDS011;48626;51.678;5.806;2024-03-25T12:00:33;14.00;;;5.63;;
62572;SDS011;48626;51.678;5.806;2024-03-25T12:02:59;9.15;;;5.53;;
62572;SDS011;48626;51.678;5.806;2024-03-25T12:05:25;14.95;;;5.20;;
62572;SDS011;48626;51.678;5.806;2024-03-25T12:07:50;11.68;;;5.25;;
62572;SDS011;48626;51.678;5.806;2024-03-25T12:10:16;8.77;;;4.68;;
62572;SDS011;48626;51.678;5.806;2024-03-25T12:13:01;9.82;;;5.07;;
62572;SDS011;48626;51.678;5.806;2024-03-25T12:15:27;12.13;;;4.95;;
62572;SDS011;48626;51.678;5.806;2024-03-25T12:17:53;9.13;;;4.65;;
62572;SDS011;48626;51.678;5.806;2024-03-25T12:20:19;192.25;;;9.73;;
62572;SDS011;48626;51.678;5.806;2024-03-25T12:22:45;10.27;;;4.47;;
62572;SDS011;48626;51.678;5.806;2024-03-25T12:25:11;7.75;;;4.70;;
62572;SDS011;48626;51.678;5.806;2024-03-25T12:27:37;13.77;;;4.90;;
62572;SDS011;48626;51.678;5.806;2024-03-25T12:30:06;9.77;;;4.40;;
62572;SDS011;48626;51.678;5.806;2024-03-25T12:32:37;7.70;;;4.00;;
62572;SDS011;48626;51.678;5.806;2024-03-25T12:35:03;8.43;;;4.30;;
62572;SDS011;48626;51.678;5.806;2024-03-25T12:37:33;8.50;;;3.80;;
62572;SDS011;48626;51.678;5.806;2024-03-25T12:39:58;9.00;;;4.30;;
62572;SDS011;48626;51.678;5.806;2024-03-25T12:42:24;10.35;;;5.15;;
62572;SDS011;48626;51.678;5.806;2024-03-25T12:44:54;8.80;;;4.50;;
62572;SDS011;48626;51.678;5.806;2024-03-25T12:47:19;7.75;;;3.90;;
62572;SDS011;48626;51.678;5.806;2024-03-25T12:49:45;9.85;;;4.30;;
62572;SDS011;48626;51.678;5.806;2024-03-25T12:52:11;7.75;;;4.10;;
62572;SDS011;48626;51.678;5.806;2024-03-25T12:54:37;8.23;;;4.32;;
62572;SDS011;48626;51.678;5.806;2024-03-25T12:57:03;11.68;;;4.35;;
62572;SDS011;48626;51.678;5.806;2024-03-25T12:59:28;11.95;;;5.20;;
62572;SDS011;48626;51.678;5.806;2024-03-25T13:01:54;8.98;;;4.32;;
62572;SDS011;48626;51.678;5.806;2024-03-25T13:04:20;8.90;;;5.18;;
62572;SDS011;48626;51.678;5.806;2024-03-25T13:06:46;8.05;;;4.05;;
62572;SDS011;48626;51.678;5.806;2024-03-25T13:09:12;9.52;;;4.53;;
62572;SDS011;48626;51.678;5.806;2024-03-25T13:11:37;9.35;;;4.22;;
62572;SDS011;48626;51.678;5.806;2024-03-25T13:14:03;10.07;;;4.00;;
62572;SDS011;48626;51.678;5.806;2024-03-25T13:16:32;9.20;;;4.05;;
62572;SDS011;48626;51.678;5.806;2024-03-25T13:18:58;8.75;;;4.30;;
62572;SDS011;48626;51.678;5.806;2024-03-25T13:21:24;9.48;;;4.05;;
62572;SDS011;48626;51.678;5.806;2024-03-25T13:23:50;9.05;;;4.22;;
62572;SDS011;48626;51.678;5.806;2024-03-25T13:26:19;12.17;;;4.53;;
62572;SDS011;48626;51.678;5.806;2024-03-25T13:28:45;12.20;;;4.22;;
62572;SDS011;48626;51.678;5.806;2024-03-25T13:31:10;9.38;;;3.95;;
62572;SDS011;48626;51.678;5.806;2024-03-25T13:33:37;8.63;;;4.18;;
62572;SDS011;48626;51.678;5.806;2024-03-25T13:36:04;7.47;;;3.95;;
62572;SDS011;48626;51.678;5.806;2024-03-25T13:38:31;11.15;;;3.78;;
62572;SDS011;48626;51.678;5.806;2024-03-25T13:40:56;8.80;;;4.38;;
62572;SDS011;48626;51.678;5.806;2024-03-25T13:43:22;9.60;;;4.32;;
62572;SDS011;48626;51.678;5.806;2024-03-25T13:45:48;5.38;;;3.45;;
62572;SDS011;48626;51.678;5.806;2024-03-25T13:48:17;9.98;;;3.97;;
62572;SDS011;48626;51.678;5.806;2024-03-25T13:50:43;6.90;;;3.27;;
62572;SDS011;48626;51.678;5.806;2024-03-25T13:53:09;5.50;;;3.17;;
62572;SDS011;48626;51.678;5.806;2024-03-25T13:55:35;7.50;;;4.00;;
62572;SDS011;48626;51.678;5.806;2024-03-25T13:58:01;9.95;;;3.85;;
62572;SDS011;48626;51.678;5.806;2024-03-25T14:00:27;7.05;;;3.20;;
62572;SDS011;48626;51.678;5.806;2024-03-25T14:02:53;6.53;;;3.40;;
62572;SDS011;48626;51.678;5.806;2024-03-25T14:05:19;6.07;;;3.67;;
62572;SDS011;48626;51.678;5.806;2024-03-25T14:07:48;8.90;;;3.50;;
62572;SDS011;48626;51.678;5.806;2024-03-25T14:10:14;6.78;;;3.22;;
62572;SDS011;48626;51.678;5.806;2024-03-25T14:12:40;7.50;;;3.55;;
62572;SDS011;48626;51.678;5.806;2024-03-25T14:15:06;7.85;;;3.50;;
62572;SDS011;48626;51.678;5.806;2024-03-25T14:17:32;8.52;;;3.88;;
62572;SDS011;48626;51.678;5.806;2024-03-25T14:19:57;9.45;;;4.13;;
62572;SDS011;48626;51.678;5.806;2024-03-25T14:22:23;10.50;;;4.05;;
62572;SDS011;48626;51.678;5.806;2024-03-25T14:24:49;9.23;;;4.13;;
62572;SDS011;48626;51.678;5.806;2024-03-25T14:27:14;12.20;;;5.03;;
62572;SDS011;48626;51.678;5.806;2024-03-25T14:29:40;6.95;;;3.72;;
62572;SDS011;48626;51.678;5.806;2024-03-25T14:32:07;6.85;;;3.17;;
62572;SDS011;48626;51.678;5.806;2024-03-25T14:34:33;10.07;;;3.92;;